English version
lugares datos climáticos artículos

datos de Mairena del Aljarafe, Sevilla, España
Año Mes Dia Mostrar

  Fecha       hora        Temp.ext.    Hum.ext.  Dir.Viento   Vel.Viento  Presion al NM   T.int. Prec.hoy 

   27-04-2018    08:50      15.9º(+0.3)     94%         -         0.0 km/h    1015.7 hpa     25.1º    0.0 mm
   27-04-2018    08:45      15.7º(+0.3)     93%         -         0.0 km/h    1015.7 hpa     25.1º    0.0 mm
   27-04-2018    08:40      15.5º(+0.1)     93%         -         0.0 km/h    1015.7 hpa     25.1º    0.0 mm
   27-04-2018    08:35      15.4º(+0.1)     93%         -         0.0 km/h    1015.7 hpa     25.1º    0.0 mm
   27-04-2018    08:30      15.4º(+0.1)     93%         -         0.0 km/h    1015.7 hpa     25.1º    0.0 mm
   27-04-2018    08:25      15.3º(+0.1)     92%         -         0.0 km/h    1015.6 hpa     25.1º    0.0 mm
   27-04-2018    08:20      15.4º(+0.2)     92%         -         0.0 km/h    1015.6 hpa     25.1º    0.0 mm
   27-04-2018    08:15      15.5º(+0.3)     92%         -         0.0 km/h    1015.6 hpa     25.1º    0.0 mm
   27-04-2018    08:10      15.6º(+0.4)     92%         -         0.0 km/h    1015.6 hpa     25.1º    0.0 mm
   27-04-2018    08:05      15.7º(+0.5)     92%         -         0.0 km/h    1015.5 hpa     25.1º    0.0 mm
   27-04-2018    08:00      15.7º(+0.5)     92%         -         0.0 km/h    1015.5 hpa     25.1º    0.0 mm
   27-04-2018    07:55      15.7º(+0.5)     92%         -         0.0 km/h    1015.6 hpa     25.1º    0.0 mm
   27-04-2018    07:50      15.6º(+0.4)     92%         -         0.0 km/h    1015.6 hpa     25.1º    0.0 mm
   27-04-2018    07:45      15.6º(+0.4)     92%         -         0.0 km/h    1015.6 hpa     25.1º    0.0 mm
   27-04-2018    07:40      15.6º(+0.4)     92%         -         0.0 km/h    1015.6 hpa     25.1º    0.0 mm
   27-04-2018    07:35      15.6º(+0.4)     92%         -         0.0 km/h    1015.6 hpa     25.1º    0.0 mm
   27-04-2018    07:30      15.6º(+0.4)     92%         -         0.0 km/h    1015.6 hpa     25.1º    0.0 mm
   27-04-2018    07:25      15.5º(+0.3)     92%         -         0.0 km/h    1015.5 hpa     25.1º    0.0 mm
   27-04-2018    07:20      15.5º(+0.3)     92%         -         0.0 km/h    1015.6 hpa     25.1º    0.0 mm
   27-04-2018    07:15      15.5º(+0.3)     92%         -         0.0 km/h    1015.6 hpa     25.1º    0.0 mm
   27-04-2018    07:10      15.5º(+0.2)     92%         -         0.0 km/h    1015.6 hpa     25.2º    0.0 mm
   27-04-2018    07:05      15.4º(+0.1)     92%         -         0.0 km/h    1015.6 hpa     25.2º    0.0 mm
   27-04-2018    07:00      15.5º(+0.2)     92%         -         0.0 km/h    1015.6 hpa     25.2º    0.0 mm
   27-04-2018    06:55      15.5º(+0.2)     92%         -         0.0 km/h    1015.6 hpa     25.1º    0.0 mm
   27-04-2018    06:50      15.5º(+0.2)     92%         -         0.0 km/h    1015.6 hpa     25.1º    0.0 mm
   27-04-2018    06:45      15.6º(+0.3)     92%         -         0.0 km/h    1015.5 hpa     25.1º    0.0 mm
   27-04-2018    06:40      15.6º(+0.3)     92%         -         0.0 km/h    1015.5 hpa     25.1º    0.0 mm
   27-04-2018    06:35      15.6º(+0.3)     92%         -         0.0 km/h    1015.5 hpa     25.1º    0.0 mm
   27-04-2018    06:30      15.6º(+0.3)     92%         -         0.0 km/h    1015.5 hpa     25.1º    0.0 mm
   27-04-2018    06:25      15.6º(+0.3)     91%         -         0.0 km/h    1015.6 hpa     25.1º    0.0 mm
   27-04-2018    06:20      15.6º(+0.2)     91%         -         0.0 km/h    1015.6 hpa     25.1º    0.0 mm
   27-04-2018    06:15      15.6º(+0.2)     91%         -         0.0 km/h    1015.7 hpa     25.1º    0.0 mm
   27-04-2018    06:10      15.7º(+0.4)     91%         -         0.0 km/h    1015.6 hpa     25.1º    0.0 mm
   27-04-2018    06:05      15.7º(+0.4)     91%         -         0.0 km/h    1015.7 hpa     25.1º    0.0 mm
   27-04-2018    06:00      15.8º(+0.5)     91%         -         0.0 km/h    1015.7 hpa     25.1º    0.0 mm
   27-04-2018    05:55      15.8º(+0.5)     91%         -         0.0 km/h    1015.7 hpa     25.1º    0.0 mm
   27-04-2018    05:50      15.8º(+0.5)     91%         -         0.0 km/h    1015.7 hpa     25.1º    0.0 mm
   27-04-2018    05:45      15.9º(+0.6)     91%         -         0.0 km/h    1015.8 hpa     25.1º    0.0 mm
   27-04-2018    05:40      15.8º(+0.5)     91%         -         0.0 km/h    1015.7 hpa     25.1º    0.0 mm
   27-04-2018    05:35      15.8º(+0.4)     90%         -         0.0 km/h    1015.6 hpa     25.1º    0.0 mm
   27-04-2018    05:30      15.8º(+0.2)     91%         -         0.0 km/h    1015.6 hpa     25.1º    0.0 mm
   27-04-2018    05:25      15.9º(+0.3)     90%         -         0.0 km/h    1015.8 hpa     25.1º    0.0 mm
   27-04-2018    05:20      15.9º(+0.2)     90%         -         0.0 km/h    1015.8 hpa     25.1º    0.0 mm
   27-04-2018    05:15      15.9º(+0.1)     90%         -         0.0 km/h    1015.8 hpa     25.1º    0.0 mm
   27-04-2018    05:10      16.0º(+0.2)     90%         -         0.0 km/h    1015.8 hpa     25.1º    0.0 mm
   27-04-2018    05:05      16.1º(+0.2)     90%         -         0.0 km/h    1015.9 hpa     25.1º    0.0 mm
   27-04-2018    05:00      16.1º(+0.1)     90%         -         0.0 km/h    1015.9 hpa     25.1º    0.0 mm
   27-04-2018    04:55      16.1º(+0.1)     90%         -         0.0 km/h    1015.9 hpa     25.1º    0.0 mm
   27-04-2018    04:50      16.1º(+0.1)     90%         -         0.0 km/h    1015.9 hpa     25.1º    0.0 mm
   27-04-2018    04:45      16.2º(+0.1)     90%         -         0.0 km/h    1016.0 hpa     25.1º    0.0 mm
   27-04-2018    04:40      16.2º(+0.1)     90%         -         0.0 km/h    1016.1 hpa     25.1º    0.0 mm
   27-04-2018    04:35      16.2º(+0.0)     90%         -         0.0 km/h    1016.1 hpa     25.1º    0.0 mm
   27-04-2018    04:30      16.2º(+0.0)     90%         -         0.0 km/h    1016.2 hpa     25.1º    0.0 mm
   27-04-2018    04:25      16.2º(-0.0)     92%         -         0.0 km/h    1016.1 hpa     25.1º    0.0 mm
   27-04-2018    04:20      16.2º(-0.1)     92%         -         0.0 km/h    1016.2 hpa     25.1º    0.0 mm
   27-04-2018    04:15      16.2º(-0.2)     90%      270 (W)      1.6 km/h    1016.3 hpa     25.1º    0.0 mm
   27-04-2018    04:10      16.2º(-0.2)     90%      270 (W)      3.2 km/h    1016.3 hpa     25.1º    0.0 mm
   27-04-2018    04:05      16.2º(-0.2)     90%      270 (W)      3.2 km/h    1016.4 hpa     25.1º    0.0 mm
   27-04-2018    04:00      16.2º(-0.2)     90%      292 (W)      3.2 km/h    1016.4 hpa     25.1º    0.0 mm
   27-04-2018    03:55      16.3º(-0.1)     90%      270 (W)      6.4 km/h    1016.5 hpa     25.1º    0.0 mm
   27-04-2018    03:50      16.3º(-0.1)     90%      270 (W)      4.8 km/h    1016.6 hpa     25.1º    0.0 mm
   27-04-2018    03:45      16.3º(-0.1)     90%      270 (W)      6.4 km/h    1016.6 hpa     25.1º    0.0 mm
   27-04-2018    03:40      16.4º(-0.0)     90%      270 (W)      4.8 km/h    1016.6 hpa     25.1º    0.0 mm
   27-04-2018    03:35      16.4º(+0.0)     90%      270 (W)      3.2 km/h    1016.6 hpa     25.1º    0.0 mm
   27-04-2018    03:30      16.4º(-0.0)     90%      270 (W)      4.8 km/h    1016.7 hpa     25.1º    0.0 mm
   27-04-2018    03:25      16.5º(+0.0)     90%      270 (W)      4.8 km/h    1016.7 hpa     25.1º    0.0 mm
   27-04-2018    03:20      16.5º(-0.1)     90%      270 (W)      4.8 km/h    1016.7 hpa     25.1º    0.0 mm
   27-04-2018    03:15      16.5º(+0.0)     90%      270 (W)      4.8 km/h    1016.8 hpa     25.1º    0.0 mm
   27-04-2018    03:10      16.5º(+0.0)     90%      270 (W)      4.8 km/h    1016.9 hpa     25.1º    0.0 mm
   27-04-2018    03:05      16.5º(+0.0)     90%      270 (W)      6.4 km/h    1016.9 hpa     25.1º    0.0 mm
   27-04-2018    03:00      16.5º(+0.0)     91%      270 (W)      6.4 km/h    1017.0 hpa     25.1º    0.0 mm
   27-04-2018    02:55      16.4º(-0.1)     91%      270 (W)      8.0 km/h    1017.0 hpa     25.1º    0.0 mm
   27-04-2018    02:50      16.4º(-0.0)     91%      270 (W)      8.0 km/h    1017.0 hpa     25.1º    0.0 mm
   27-04-2018    02:45      16.5º(+0.1)     92%      247(SW)      8.0 km/h    1017.1 hpa     25.1º    0.0 mm
   27-04-2018    02:40      16.6º(+0.1)     92%      247(SW)      6.4 km/h    1017.1 hpa     25.1º    0.0 mm
   27-04-2018    02:35      16.6º(+0.2)     92%      270 (W)      9.7 km/h    1017.1 hpa     25.1º    0.0 mm
   27-04-2018    02:30      16.6º(+0.2)     92%      270 (W)      8.0 km/h    1017.2 hpa     25.1º    0.0 mm
   27-04-2018    02:25      16.5º(+0.2)     92%      270 (W)     11.3 km/h    1017.3 hpa     25.1º    0.0 mm
   27-04-2018    02:20      16.5º(+0.2)     93%      270 (W)      8.0 km/h    1017.4 hpa     25.1º    0.0 mm
   27-04-2018    02:15      16.5º(+0.2)     93%      270 (W)      9.7 km/h    1017.5 hpa     25.1º    0.0 mm
   27-04-2018    02:10      16.5º(+0.3)     93%      270 (W)      8.0 km/h    1017.7 hpa     25.1º    0.0 mm
   27-04-2018    02:05      16.6º(+0.4)     93%      270 (W)      6.4 km/h    1017.6 hpa     25.1º    0.0 mm
   27-04-2018    02:00      16.6º(+0.4)     93%      270 (W)      6.4 km/h    1017.6 hpa     25.1º    0.0 mm
   27-04-2018    01:55      16.6º(----)     93%      270 (W)      4.8 km/h    1017.6 hpa     25.1º    0.0 mm
   27-04-2018    01:50      16.6º(----)     93%      270 (W)      6.4 km/h    1017.7 hpa     25.1º    0.0 mm
   27-04-2018    01:45      16.6º(----)     93%      247(SW)      6.4 km/h    1017.6 hpa     25.1º    0.0 mm
   27-04-2018    01:40      16.7º(----)     93%      247(SW)      8.0 km/h    1017.7 hpa     25.1º    0.0 mm
   27-04-2018    01:35      16.7º(----)     93%      270 (W)      6.4 km/h    1017.7 hpa     25.1º    0.0 mm
   27-04-2018    01:30      16.7º(----)     93%      270 (W)      8.0 km/h    1017.8 hpa     25.0º    0.0 mm
   27-04-2018    01:25      16.7º(----)     93%      270 (W)      6.4 km/h    1017.7 hpa     25.0º    0.0 mm
   27-04-2018    01:20      16.7º(----)     93%      270 (W)      6.4 km/h    1017.7 hpa     25.0º    0.0 mm
   27-04-2018    01:15      16.8º(----)     93%      270 (W)      8.0 km/h    1017.7 hpa     25.0º    0.0 mm
   27-04-2018    01:10      16.8º(----)     93%      247(SW)      4.8 km/h    1017.5 hpa     25.0º    0.0 mm
   27-04-2018    01:05      16.8º(----)     93%      202 (S)      3.2 km/h    1017.6 hpa     25.0º    0.0 mm
   27-04-2018    01:00      16.8º(----)     93%      247(SW)      3.2 km/h    1017.6 hpa     25.0º    0.0 mm
   27-04-2018    00:55      16.8º(----)     92%      270 (W)      6.4 km/h    1017.7 hpa     25.0º    0.0 mm
   27-04-2018    00:50      16.8º(----)     92%      270 (W)      4.8 km/h    1017.8 hpa     25.0º    0.0 mm
   27-04-2018    00:45      16.8º(----)     92%      270 (W)      4.8 km/h    1017.8 hpa     25.0º    0.0 mm
   27-04-2018    00:40      16.8º(----)     92%      270 (W)      3.2 km/h    1017.7 hpa     25.0º    0.0 mm
   27-04-2018    00:35      16.8º(----)     92%      270 (W)      8.0 km/h    1017.7 hpa     25.0º    0.0 mm
   27-04-2018    00:30      16.8º(----)     92%      270 (W)      8.0 km/h    1017.7 hpa     25.0º    0.0 mm
   27-04-2018    00:25      16.8º(----)     92%      247(SW)      4.8 km/h    1017.7 hpa     25.0º    0.0 mm
   27-04-2018    00:20      16.8º(----)     91%      247(SW)      6.4 km/h    1017.7 hpa     25.0º    0.0 mm
   27-04-2018    00:15      16.9º(----)     91%      270 (W)      4.8 km/h    1017.8 hpa     25.0º    0.0 mm
   27-04-2018    00:10      16.9º(----)     90%      270 (W)      6.4 km/h    1017.7 hpa     25.0º    0.0 mm
   27-04-2018    00:05      17.1º(----)     90%      270 (W)      4.8 km/h    1017.8 hpa     25.0º    0.0 mm
   27-04-2018    00:00      17.1º(----)     90%      247(SW)      3.2 km/h    1017.7 hpa     25.0º    0.0 mm